sensor_id;sensor_type;location;lat;lon;timestamp;P1;durP1;ratioP1;P2;durP2;ratioP2
10947;SDS011;5526;42.070;24.752;2022-07-29T00:02:17;4.50;;;4.20;;
10947;SDS011;5526;42.070;24.752;2022-07-29T00:04:44;4.65;;;4.05;;
10947;SDS011;5526;42.070;24.752;2022-07-29T00:07:11;4.57;;;4.00;;
10947;SDS011;5526;42.070;24.752;2022-07-29T00:09:38;5.03;;;4.30;;
10947;SDS011;5526;42.070;24.752;2022-07-29T00:12:06;4.55;;;4.20;;
10947;SDS011;5526;42.070;24.752;2022-07-29T00:14:34;4.82;;;4.32;;
10947;SDS011;5526;42.070;24.752;2022-07-29T00:17:03;4.97;;;4.40;;
10947;SDS011;5526;42.070;24.752;2022-07-29T00:19:30;4.50;;;4.20;;
10947;SDS011;5526;42.070;24.752;2022-07-29T00:21:57;4.90;;;4.43;;
10947;SDS011;5526;42.070;24.752;2022-07-29T00:24:24;4.85;;;4.47;;
10947;SDS011;5526;42.070;24.752;2022-07-29T00:26:51;4.82;;;4.43;;
10947;SDS011;5526;42.070;24.752;2022-07-29T00:29:19;4.85;;;4.45;;
10947;SDS011;5526;42.070;24.752;2022-07-29T00:31:46;5.05;;;4.63;;
10947;SDS011;5526;42.070;24.752;2022-07-29T00:34:15;5.57;;;4.45;;
10947;SDS011;5526;42.070;24.752;2022-07-29T00:36:59;4.55;;;4.25;;
10947;SDS011;5526;42.070;24.752;2022-07-29T00:39:26;5.65;;;4.40;;
10947;SDS011;5526;42.070;24.752;2022-07-29T00:41:54;5.05;;;4.55;;
10947;SDS011;5526;42.070;24.752;2022-07-29T00:44:21;5.40;;;4.68;;
10947;SDS011;5526;42.070;24.752;2022-07-29T00:46:48;5.00;;;4.60;;
10947;SDS011;5526;42.070;24.752;2022-07-29T00:49:17;4.63;;;4.30;;
10947;SDS011;5526;42.070;24.752;2022-07-29T00:51:44;5.47;;;4.78;;
10947;SDS011;5526;42.070;24.752;2022-07-29T00:54:11;5.47;;;4.57;;
10947;SDS011;5526;42.070;24.752;2022-07-29T00:56:39;5.18;;;4.40;;
10947;SDS011;5526;42.070;24.752;2022-07-29T00:59:06;4.70;;;4.25;;
10947;SDS011;5526;42.070;24.752;2022-07-29T01:01:33;5.10;;;4.53;;
10947;SDS011;5526;42.070;24.752;2022-07-29T01:04:00;4.55;;;4.15;;
10947;SDS011;5526;42.070;24.752;2022-07-29T01:06:29;5.03;;;4.53;;
10947;SDS011;5526;42.070;24.752;2022-07-29T01:08:56;4.95;;;4.30;;
10947;SDS011;5526;42.070;24.752;2022-07-29T01:11:24;5.97;;;4.85;;
10947;SDS011;5526;42.070;24.752;2022-07-29T01:13:52;7.10;;;5.28;;
10947;SDS011;5526;42.070;24.752;2022-07-29T01:16:20;4.72;;;4.30;;
10947;SDS011;5526;42.070;24.752;2022-07-29T01:18:53;4.90;;;4.50;;
10947;SDS011;5526;42.070;24.752;2022-07-29T01:21:39;4.88;;;4.45;;
10947;SDS011;5526;42.070;24.752;2022-07-29T01:24:23;5.60;;;4.60;;
10947;SDS011;5526;42.070;24.752;2022-07-29T01:27:03;5.18;;;4.68;;
10947;SDS011;5526;42.070;24.752;2022-07-29T01:29:44;5.45;;;4.95;;
10947;SDS011;5526;42.070;24.752;2022-07-29T01:32:22;5.22;;;4.82;;
10947;SDS011;5526;42.070;24.752;2022-07-29T01:34:54;4.90;;;4.43;;
10947;SDS011;5526;42.070;24.752;2022-07-29T01:37:26;4.80;;;4.45;;
10947;SDS011;5526;42.070;24.752;2022-07-29T01:39:58;6.00;;;5.47;;
10947;SDS011;5526;42.070;24.752;2022-07-29T01:42:30;5.28;;;4.70;;
10947;SDS011;5526;42.070;24.752;2022-07-29T01:45:06;5.82;;;5.15;;
10947;SDS011;5526;42.070;24.752;2022-07-29T01:47:37;5.68;;;5.28;;
10947;SDS011;5526;42.070;24.752;2022-07-29T01:50:10;5.60;;;5.20;;
10947;SDS011;5526;42.070;24.752;2022-07-29T01:52:42;5.15;;;4.72;;
10947;SDS011;5526;42.070;24.752;2022-07-29T01:55:14;5.90;;;5.40;;
10947;SDS011;5526;42.070;24.752;2022-07-29T01:57:44;5.78;;;5.30;;
10947;SDS011;5526;42.070;24.752;2022-07-29T02:00:16;5.38;;;4.88;;
10947;SDS011;5526;42.070;24.752;2022-07-29T02:02:44;5.22;;;4.82;;
10947;SDS011;5526;42.070;24.752;2022-07-29T02:05:14;5.18;;;4.78;;
10947;SDS011;5526;42.070;24.752;2022-07-29T02:07:44;5.30;;;4.90;;
10947;SDS011;5526;42.070;24.752;2022-07-29T02:10:13;5.93;;;5.43;;
10947;SDS011;5526;42.070;24.752;2022-07-29T02:12:42;5.55;;;5.15;;
10947;SDS011;5526;42.070;24.752;2022-07-29T02:15:11;5.50;;;5.03;;
10947;SDS011;5526;42.070;24.752;2022-07-29T02:17:42;5.47;;;5.07;;
10947;SDS011;5526;42.070;24.752;2022-07-29T02:20:12;5.93;;;5.40;;
10947;SDS011;5526;42.070;24.752;2022-07-29T02:22:40;5.80;;;5.40;;
10947;SDS011;5526;42.070;24.752;2022-07-29T02:25:09;5.55;;;5.07;;
10947;SDS011;5526;42.070;24.752;2022-07-29T02:27:37;6.82;;;5.93;;
10947;SDS011;5526;42.070;24.752;2022-07-29T02:30:07;6.35;;;5.55;;
10947;SDS011;5526;42.070;24.752;2022-07-29T02:32:37;6.50;;;5.70;;
10947;SDS011;5526;42.070;24.752;2022-07-29T02:35:08;6.20;;;5.50;;
10947;SDS011;5526;42.070;24.752;2022-07-29T02:37:36;6.82;;;5.93;;
10947;SDS011;5526;42.070;24.752;2022-07-29T02:40:05;6.38;;;5.82;;
10947;SDS011;5526;42.070;24.752;2022-07-29T02:42:35;7.00;;;6.13;;
10947;SDS011;5526;42.070;24.752;2022-07-29T02:45:04;6.95;;;6.35;;
10947;SDS011;5526;42.070;24.752;2022-07-29T02:47:34;7.20;;;6.50;;
10947;SDS011;5526;42.070;24.752;2022-07-29T02:50:09;6.43;;;5.90;;
10947;SDS011;5526;42.070;24.752;2022-07-29T02:52:41;6.55;;;6.05;;
10947;SDS011;5526;42.070;24.752;2022-07-29T02:55:13;6.13;;;5.63;;
10947;SDS011;5526;42.070;24.752;2022-07-29T02:57:46;7.00;;;6.38;;
10947;SDS011;5526;42.070;24.752;2022-07-29T03:00:17;7.13;;;6.43;;
10947;SDS011;5526;42.070;24.752;2022-07-29T03:02:45;6.97;;;6.30;;
10947;SDS011;5526;42.070;24.752;2022-07-29T03:05:19;6.93;;;6.32;;
10947;SDS011;5526;42.070;24.752;2022-07-29T03:07:48;7.28;;;6.57;;
10947;SDS011;5526;42.070;24.752;2022-07-29T03:10:19;7.97;;;6.65;;
10947;SDS011;5526;42.070;24.752;2022-07-29T03:12:47;7.68;;;6.97;;
10947;SDS011;5526;42.070;24.752;2022-07-29T03:15:15;7.20;;;6.65;;
10947;SDS011;5526;42.070;24.752;2022-07-29T03:17:42;7.30;;;6.60;;
10947;SDS011;5526;42.070;24.752;2022-07-29T03:20:10;6.97;;;6.38;;
10947;SDS011;5526;42.070;24.752;2022-07-29T03:22:40;8.23;;;6.72;;
10947;SDS011;5526;42.070;24.752;2022-07-29T03:25:09;8.35;;;7.18;;
10947;SDS011;5526;42.070;24.752;2022-07-29T03:27:37;6.90;;;6.40;;
10947;SDS011;5526;42.070;24.752;2022-07-29T03:30:05;7.43;;;6.82;;
10947;SDS011;5526;42.070;24.752;2022-07-29T03:32:34;7.03;;;6.30;;
10947;SDS011;5526;42.070;24.752;2022-07-29T03:35:01;7.07;;;6.22;;
10947;SDS011;5526;42.070;24.752;2022-07-29T03:37:28;7.13;;;6.43;;
10947;SDS011;5526;42.070;24.752;2022-07-29T03:39:58;7.40;;;6.70;;
10947;SDS011;5526;42.070;24.752;2022-07-29T03:42:26;6.90;;;6.30;;
10947;SDS011;5526;42.070;24.752;2022-07-29T03:44:57;7.10;;;6.50;;
10947;SDS011;5526;42.070;24.752;2022-07-29T03:47:27;6.55;;;5.97;;
10947;SDS011;5526;42.070;24.752;2022-07-29T03:49:57;6.88;;;6.38;;
10947;SDS011;5526;42.070;24.752;2022-07-29T03:52:28;7.10;;;6.40;;
10947;SDS011;5526;42.070;24.752;2022-07-29T03:54:58;6.63;;;6.10;;
10947;SDS011;5526;42.070;24.752;2022-07-29T03:57:27;6.97;;;6.38;;
10947;SDS011;5526;42.070;24.752;2022-07-29T03:59:56;7.68;;;7.07;;
10947;SDS011;5526;42.070;24.752;2022-07-29T04:02:25;7.95;;;7.35;;
10947;SDS011;5526;42.070;24.752;2022-07-29T04:04:53;8.95;;;6.70;;
10947;SDS011;5526;42.070;24.752;2022-07-29T04:07:20;7.10;;;6.55;;
10947;SDS011;5526;42.070;24.752;2022-07-29T04:09:47;7.68;;;6.70;;
10947;SDS011;5526;42.070;24.752;2022-07-29T04:12:16;7.47;;;6.78;;
10947;SDS011;5526;42.070;24.752;2022-07-29T04:14:43;7.13;;;6.53;;
10947;SDS011;5526;42.070;24.752;2022-07-29T04:17:10;7.75;;;7.15;;
10947;SDS011;5526;42.070;24.752;2022-07-29T04:19:38;7.68;;;6.93;;
10947;SDS011;5526;42.070;24.752;2022-07-29T04:22:05;7.75;;;7.15;;
10947;SDS011;5526;42.070;24.752;2022-07-29T04:24:32;8.60;;;7.75;;
10947;SDS011;5526;42.070;24.752;2022-07-29T04:26:59;8.65;;;7.95;;
10947;SDS011;5526;42.070;24.752;2022-07-29T04:29:28;8.57;;;7.88;;
10947;SDS011;5526;42.070;24.752;2022-07-29T04:31:55;7.70;;;7.15;;
10947;SDS011;5526;42.070;24.752;2022-07-29T04:34:23;7.85;;;7.15;;
10947;SDS011;5526;42.070;24.752;2022-07-29T04:36:50;7.72;;;7.03;;
10947;SDS011;5526;42.070;24.752;2022-07-29T04:39:17;7.72;;;7.07;;
10947;SDS011;5526;42.070;24.752;2022-07-29T04:41:44;7.47;;;6.88;;
10947;SDS011;5526;42.070;24.752;2022-07-29T04:44:12;7.35;;;6.75;;
10947;SDS011;5526;42.070;24.752;2022-07-29T04:46:41;6.57;;;6.07;;
10947;SDS011;5526;42.070;24.752;2022-07-29T04:49:08;7.22;;;6.63;;
10947;SDS011;5526;42.070;24.752;2022-07-29T04:51:35;7.47;;;6.88;;
10947;SDS011;5526;42.070;24.752;2022-07-29T04:54:03;8.65;;;6.47;;
10947;SDS011;5526;42.070;24.752;2022-07-29T04:56:30;7.00;;;6.40;;
10947;SDS011;5526;42.070;24.752;2022-07-29T04:58:57;6.78;;;6.25;;
10947;SDS011;5526;42.070;24.752;2022-07-29T05:01:24;7.25;;;6.43;;
10947;SDS011;5526;42.070;24.752;2022-07-29T05:03:53;6.85;;;6.35;;
10947;SDS011;5526;42.070;24.752;2022-07-29T05:06:20;7.15;;;6.65;;
10947;SDS011;5526;42.070;24.752;2022-07-29T05:08:47;7.60;;;7.00;;
10947;SDS011;5526;42.070;24.752;2022-07-29T05:11:15;7.85;;;7.05;;
10947;SDS011;5526;42.070;24.752;2022-07-29T05:13:42;8.02;;;7.32;;
10947;SDS011;5526;42.070;24.752;2022-07-29T05:16:10;7.53;;;6.88;;
10947;SDS011;5526;42.070;24.752;2022-07-29T05:18:38;7.78;;;7.18;;
10947;SDS011;5526;42.070;24.752;2022-07-29T05:21:06;7.95;;;7.35;;
10947;SDS011;5526;42.070;24.752;2022-07-29T05:23:33;7.85;;;7.25;;
10947;SDS011;5526;42.070;24.752;2022-07-29T05:26:01;8.25;;;7.57;;
10947;SDS011;5526;42.070;24.752;2022-07-29T05:28:28;9.02;;;8.25;;
10947;SDS011;5526;42.070;24.752;2022-07-29T05:30:55;9.50;;;8.68;;
10947;SDS011;5526;42.070;24.752;2022-07-29T05:33:22;9.35;;;8.38;;
10947;SDS011;5526;42.070;24.752;2022-07-29T05:35:50;9.00;;;8.23;;
10947;SDS011;5526;42.070;24.752;2022-07-29T05:38:18;9.25;;;8.52;;
10947;SDS011;5526;42.070;24.752;2022-07-29T05:40:45;9.20;;;8.48;;
10947;SDS011;5526;42.070;24.752;2022-07-29T05:43:13;9.20;;;8.50;;
10947;SDS011;5526;42.070;24.752;2022-07-29T05:45:40;8.80;;;8.02;;
10947;SDS011;5526;42.070;24.752;2022-07-29T05:48:07;8.95;;;8.35;;
10947;SDS011;5526;42.070;24.752;2022-07-29T05:50:34;8.98;;;8.25;;
10947;SDS011;5526;42.070;24.752;2022-07-29T05:53:01;7.72;;;7.10;;
10947;SDS011;5526;42.070;24.752;2022-07-29T05:55:30;11.45;;;8.75;;
10947;SDS011;5526;42.070;24.752;2022-07-29T05:57:57;9.02;;;8.30;;
10947;SDS011;5526;42.070;24.752;2022-07-29T06:00:24;8.90;;;8.18;;
10947;SDS011;5526;42.070;24.752;2022-07-29T06:02:52;8.50;;;7.80;;
10947;SDS011;5526;42.070;24.752;2022-07-29T06:05:19;16.67;;;8.95;;
10947;SDS011;5526;42.070;24.752;2022-07-29T06:07:46;8.63;;;8.02;;
10947;SDS011;5526;42.070;24.752;2022-07-29T06:10:13;8.73;;;8.02;;
10947;SDS011;5526;42.070;24.752;2022-07-29T06:12:42;8.40;;;7.80;;
10947;SDS011;5526;42.070;24.752;2022-07-29T06:15:09;10.13;;;9.32;;
10947;SDS011;5526;42.070;24.752;2022-07-29T06:17:37;11.77;;;8.90;;
10947;SDS011;5526;42.070;24.752;2022-07-29T06:20:04;9.20;;;8.40;;
10947;SDS011;5526;42.070;24.752;2022-07-29T06:22:32;9.65;;;8.68;;
10947;SDS011;5526;42.070;24.752;2022-07-29T06:25:00;9.57;;;8.85;;
10947;SDS011;5526;42.070;24.752;2022-07-29T06:27:28;9.18;;;8.38;;
10947;SDS011;5526;42.070;24.752;2022-07-29T06:29:57;9.27;;;8.48;;
10947;SDS011;5526;42.070;24.752;2022-07-29T06:32:24;9.20;;;8.50;;
10947;SDS011;5526;42.070;24.752;2022-07-29T06:34:51;10.38;;;9.30;;
10947;SDS011;5526;42.070;24.752;2022-07-29T06:37:18;9.10;;;8.20;;
10947;SDS011;5526;42.070;24.752;2022-07-29T06:39:47;9.30;;;8.48;;
10947;SDS011;5526;42.070;24.752;2022-07-29T06:42:34;9.93;;;9.00;;
10947;SDS011;5526;42.070;24.752;2022-07-29T06:45:03;9.95;;;8.57;;
10947;SDS011;5526;42.070;24.752;2022-07-29T06:47:30;9.35;;;7.95;;
10947;SDS011;5526;42.070;24.752;2022-07-29T06:49:57;9.43;;;8.60;;
10947;SDS011;5526;42.070;24.752;2022-07-29T06:52:25;8.57;;;7.78;;
10947;SDS011;5526;42.070;24.752;2022-07-29T06:54:52;8.25;;;7.65;;
10947;SDS011;5526;42.070;24.752;2022-07-29T06:57:20;8.18;;;7.45;;
10947;SDS011;5526;42.070;24.752;2022-07-29T06:59:47;8.43;;;7.72;;
10947;SDS011;5526;42.070;24.752;2022-07-29T07:02:16;9.77;;;9.07;;
10947;SDS011;5526;42.070;24.752;2022-07-29T07:04:43;9.13;;;8.30;;
10947;SDS011;5526;42.070;24.752;2022-07-29T07:07:10;9.45;;;8.65;;
10947;SDS011;5526;42.070;24.752;2022-07-29T07:09:38;8.85;;;8.13;;
10947;SDS011;5526;42.070;24.752;2022-07-29T07:12:05;8.90;;;8.05;;
10947;SDS011;5526;42.070;24.752;2022-07-29T07:14:33;9.63;;;8.90;;
10947;SDS011;5526;42.070;24.752;2022-07-29T07:17:00;9.45;;;8.68;;
10947;SDS011;5526;42.070;24.752;2022-07-29T07:19:30;9.02;;;8.18;;
10947;SDS011;5526;42.070;24.752;2022-07-29T07:21:57;9.38;;;8.60;;
10947;SDS011;5526;42.070;24.752;2022-07-29T07:24:25;8.48;;;7.78;;
10947;SDS011;5526;42.070;24.752;2022-07-29T07:26:52;8.88;;;8.18;;
10947;SDS011;5526;42.070;24.752;2022-07-29T07:29:19;9.07;;;8.30;;
10947;SDS011;5526;42.070;24.752;2022-07-29T07:31:46;8.55;;;7.78;;
10947;SDS011;5526;42.070;24.752;2022-07-29T07:34:14;8.80;;;8.05;;
10947;SDS011;5526;42.070;24.752;2022-07-29T07:36:42;8.63;;;7.85;;
10947;SDS011;5526;42.070;24.752;2022-07-29T07:39:09;8.80;;;8.10;;
10947;SDS011;5526;42.070;24.752;2022-07-29T07:41:37;8.00;;;7.30;;
10947;SDS011;5526;42.070;24.752;2022-07-29T07:44:04;8.02;;;7.32;;
10947;SDS011;5526;42.070;24.752;2022-07-29T07:46:31;7.72;;;7.20;;
10947;SDS011;5526;42.070;24.752;2022-07-29T07:48:58;8.75;;;7.97;;
10947;SDS011;5526;42.070;24.752;2022-07-29T07:51:25;8.77;;;7.85;;
10947;SDS011;5526;42.070;24.752;2022-07-29T07:53:54;17.25;;;8.23;;
10947;SDS011;5526;42.070;24.752;2022-07-29T07:56:21;8.82;;;7.97;;
10947;SDS011;5526;42.070;24.752;2022-07-29T07:58:49;8.75;;;7.90;;
10947;SDS011;5526;42.070;24.752;2022-07-29T08:01:16;8.70;;;7.63;;
10947;SDS011;5526;42.070;24.752;2022-07-29T08:03:44;8.60;;;7.80;;
10947;SDS011;5526;42.070;24.752;2022-07-29T08:06:11;8.13;;;7.43;;
10947;SDS011;5526;42.070;24.752;2022-07-29T08:08:39;8.40;;;7.78;;
10947;SDS011;5526;42.070;24.752;2022-07-29T08:11:07;8.02;;;7.32;;
10947;SDS011;5526;42.070;24.752;2022-07-29T08:13:34;7.68;;;7.10;;
10947;SDS011;5526;42.070;24.752;2022-07-29T08:16:02;7.80;;;7.18;;
10947;SDS011;5526;42.070;24.752;2022-07-29T08:18:37;7.55;;;6.68;;
10947;SDS011;5526;42.070;24.752;2022-07-29T08:21:06;7.15;;;6.65;;
10947;SDS011;5526;42.070;24.752;2022-07-29T08:23:33;7.55;;;7.03;;
10947;SDS011;5526;42.070;24.752;2022-07-29T08:26:03;7.30;;;6.57;;
10947;SDS011;5526;42.070;24.752;2022-07-29T08:28:36;7.40;;;6.85;;
10947;SDS011;5526;42.070;24.752;2022-07-29T08:31:04;7.32;;;6.63;;
10947;SDS011;5526;42.070;24.752;2022-07-29T08:33:32;7.22;;;6.68;;
10947;SDS011;5526;42.070;24.752;2022-07-29T08:35:59;7.18;;;6.57;;
10947;SDS011;5526;42.070;24.752;2022-07-29T08:38:27;6.82;;;6.20;;
10947;SDS011;5526;42.070;24.752;2022-07-29T08:40:54;7.95;;;6.82;;
10947;SDS011;5526;42.070;24.752;2022-07-29T08:43:22;7.05;;;6.43;;
10947;SDS011;5526;42.070;24.752;2022-07-29T08:45:51;8.48;;;5.95;;
10947;SDS011;5526;42.070;24.752;2022-07-29T08:48:20;5.70;;;5.10;;
10947;SDS011;5526;42.070;24.752;2022-07-29T08:50:50;6.20;;;5.70;;
10947;SDS011;5526;42.070;24.752;2022-07-29T08:53:20;6.20;;;5.60;;
10947;SDS011;5526;42.070;24.752;2022-07-29T08:55:51;6.57;;;6.15;;
10947;SDS011;5526;42.070;24.752;2022-07-29T08:58:19;6.55;;;5.95;;
10947;SDS011;5526;42.070;24.752;2022-07-29T09:00:49;4.45;;;4.07;;
10947;SDS011;5526;42.070;24.752;2022-07-29T09:03:22;4.40;;;4.03;;
10947;SDS011;5526;42.070;24.752;2022-07-29T09:05:51;4.20;;;3.90;;
10947;SDS011;5526;42.070;24.752;2022-07-29T09:08:18;4.63;;;3.83;;
10947;SDS011;5526;42.070;24.752;2022-07-29T09:10:46;3.42;;;3.33;;
10947;SDS011;5526;42.070;24.752;2022-07-29T09:13:13;4.07;;;3.70;;
10947;SDS011;5526;42.070;24.752;2022-07-29T09:15:40;4.10;;;3.72;;
10947;SDS011;5526;42.070;24.752;2022-07-29T09:18:09;3.58;;;3.38;;
10947;SDS011;5526;42.070;24.752;2022-07-29T09:20:37;3.63;;;3.38;;
10947;SDS011;5526;42.070;24.752;2022-07-29T09:23:22;3.80;;;3.55;;
10947;SDS011;5526;42.070;24.752;2022-07-29T09:25:49;4.18;;;3.75;;
10947;SDS011;5526;42.070;24.752;2022-07-29T09:28:17;3.70;;;3.50;;
10947;SDS011;5526;42.070;24.752;2022-07-29T09:30:49;4.45;;;3.28;;
10947;SDS011;5526;42.070;24.752;2022-07-29T09:33:20;3.83;;;3.50;;
10947;SDS011;5526;42.070;24.752;2022-07-29T09:35:58;3.92;;;3.60;;
10947;SDS011;5526;42.070;24.752;2022-07-29T09:38:26;3.60;;;3.40;;
10947;SDS011;5526;42.070;24.752;2022-07-29T09:40:55;3.90;;;3.60;;
10947;SDS011;5526;42.070;24.752;2022-07-29T09:43:23;3.70;;;3.50;;
10947;SDS011;5526;42.070;24.752;2022-07-29T09:45:51;3.75;;;3.55;;
10947;SDS011;5526;42.070;24.752;2022-07-29T09:48:21;3.78;;;3.58;;
10947;SDS011;5526;42.070;24.752;2022-07-29T09:50:49;3.05;;;2.92;;
10947;SDS011;5526;42.070;24.752;2022-07-29T09:53:30;2.90;;;2.80;;
10947;SDS011;5526;42.070;24.752;2022-07-29T09:55:58;3.40;;;3.22;;
10947;SDS011;5526;42.070;24.752;2022-07-29T09:58:25;3.72;;;3.47;;
10947;SDS011;5526;42.070;24.752;2022-07-29T10:00:53;3.42;;;3.20;;
10947;SDS011;5526;42.070;24.752;2022-07-29T10:03:22;3.38;;;3.10;;
10947;SDS011;5526;42.070;24.752;2022-07-29T10:06:03;3.20;;;3.08;;
10947;SDS011;5526;42.070;24.752;2022-07-29T10:08:32;4.30;;;3.33;;
10947;SDS011;5526;42.070;24.752;2022-07-29T10:11:08;3.22;;;3.03;;
10947;SDS011;5526;42.070;24.752;2022-07-29T10:13:36;3.35;;;3.08;;
10947;SDS011;5526;42.070;24.752;2022-07-29T10:16:05;3.20;;;3.00;;
10947;SDS011;5526;42.070;24.752;2022-07-29T10:18:34;3.60;;;3.40;;
10947;SDS011;5526;42.070;24.752;2022-07-29T10:21:04;3.20;;;3.10;;
10947;SDS011;5526;42.070;24.752;2022-07-29T10:23:32;3.30;;;3.10;;
10947;SDS011;5526;42.070;24.752;2022-07-29T10:26:01;3.30;;;3.08;;
10947;SDS011;5526;42.070;24.752;2022-07-29T10:28:29;3.03;;;2.83;;
10947;SDS011;5526;42.070;24.752;2022-07-29T10:30:59;2.88;;;2.78;;
10947;SDS011;5526;42.070;24.752;2022-07-29T10:33:37;2.88;;;2.67;;
10947;SDS011;5526;42.070;24.752;2022-07-29T10:36:23;3.20;;;3.00;;
10947;SDS011;5526;42.070;24.752;2022-07-29T10:39:00;3.13;;;2.97;;
10947;SDS011;5526;42.070;24.752;2022-07-29T10:41:43;3.50;;;3.30;;
10947;SDS011;5526;42.070;24.752;2022-07-29T10:44:22;3.40;;;3.08;;
10947;SDS011;5526;42.070;24.752;2022-07-29T10:46:52;3.20;;;2.95;;
10947;SDS011;5526;42.070;24.752;2022-07-29T10:49:21;3.20;;;3.00;;
10947;SDS011;5526;42.070;24.752;2022-07-29T10:52:02;6.78;;;3.20;;
10947;SDS011;5526;42.070;24.752;2022-07-29T10:54:43;3.40;;;3.10;;
10947;SDS011;5526;42.070;24.752;2022-07-29T10:57:23;3.80;;;3.50;;
10947;SDS011;5526;42.070;24.752;2022-07-29T11:02:58;3.63;;;3.33;;
10947;SDS011;5526;42.070;24.752;2022-07-29T11:05:27;6.15;;;4.07;;
10947;SDS011;5526;42.070;24.752;2022-07-29T11:10:51;3.85;;;3.47;;
10947;SDS011;5526;42.070;24.752;2022-07-29T11:13:46;3.45;;;3.30;;
10947;SDS011;5526;42.070;24.752;2022-07-29T11:16:16;3.75;;;3.55;;
10947;SDS011;5526;42.070;24.752;2022-07-29T11:21:49;4.28;;;3.88;;
10947;SDS011;5526;42.070;24.752;2022-07-29T11:24:18;3.35;;;3.15;;
10947;SDS011;5526;42.070;24.752;2022-07-29T11:29:37;3.83;;;3.53;;
10947;SDS011;5526;42.070;24.752;2022-07-29T11:32:10;3.50;;;3.30;;
10947;SDS011;5526;42.070;24.752;2022-07-29T11:34:39;3.97;;;3.65;;
10947;SDS011;5526;42.070;24.752;2022-07-29T11:37:18;3.60;;;3.40;;
10947;SDS011;5526;42.070;24.752;2022-07-29T11:40:12;3.40;;;3.10;;
10947;SDS011;5526;42.070;24.752;2022-07-29T11:42:42;3.53;;;3.33;;
10947;SDS011;5526;42.070;24.752;2022-07-29T11:45:13;3.58;;;3.38;;
10947;SDS011;5526;42.070;24.752;2022-07-29T11:47:46;3.78;;;3.47;;
10947;SDS011;5526;42.070;24.752;2022-07-29T11:50:17;3.35;;;3.22;;
10947;SDS011;5526;42.070;24.752;2022-07-29T11:52:55;3.28;;;3.08;;
10947;SDS011;5526;42.070;24.752;2022-07-29T11:55:23;4.00;;;3.80;;
10947;SDS011;5526;42.070;24.752;2022-07-29T11:57:51;3.63;;;3.50;;
10947;SDS011;5526;42.070;24.752;2022-07-29T12:00:21;3.70;;;3.50;;
10947;SDS011;5526;42.070;24.752;2022-07-29T12:02:51;3.13;;;2.92;;
10947;SDS011;5526;42.070;24.752;2022-07-29T12:05:18;3.70;;;3.50;;
10947;SDS011;5526;42.070;24.752;2022-07-29T12:07:46;3.38;;;3.10;;
10947;SDS011;5526;42.070;24.752;2022-07-29T12:10:16;3.70;;;3.60;;
10947;SDS011;5526;42.070;24.752;2022-07-29T12:12:43;3.92;;;3.72;;
10947;SDS011;5526;42.070;24.752;2022-07-29T12:15:18;3.42;;;3.33;;
10947;SDS011;5526;42.070;24.752;2022-07-29T12:17:46;6.55;;;3.50;;
10947;SDS011;5526;42.070;24.752;2022-07-29T12:20:21;3.40;;;3.20;;
10947;SDS011;5526;42.070;24.752;2022-07-29T12:22:49;3.40;;;3.20;;
10947;SDS011;5526;42.070;24.752;2022-07-29T12:25:20;3.15;;;3.05;;
10947;SDS011;5526;42.070;24.752;2022-07-29T12:27:57;3.15;;;3.05;;
10947;SDS011;5526;42.070;24.752;2022-07-29T12:30:34;4.47;;;3.63;;
10947;SDS011;5526;42.070;24.752;2022-07-29T12:33:10;3.50;;;3.30;;
10947;SDS011;5526;42.070;24.752;2022-07-29T12:35:42;3.40;;;3.28;;
10947;SDS011;5526;42.070;24.752;2022-07-29T12:38:11;3.70;;;3.38;;
10947;SDS011;5526;42.070;24.752;2022-07-29T12:40:40;3.42;;;3.13;;
10947;SDS011;5526;42.070;24.752;2022-07-29T12:43:09;3.58;;;3.38;;
10947;SDS011;5526;42.070;24.752;2022-07-29T12:45:38;3.50;;;3.20;;
10947;SDS011;5526;42.070;24.752;2022-07-29T12:48:06;3.65;;;3.25;;
10947;SDS011;5526;42.070;24.752;2022-07-29T12:50:35;3.70;;;3.50;;
10947;SDS011;5526;42.070;24.752;2022-07-29T12:53:09;3.22;;;3.10;;
10947;SDS011;5526;42.070;24.752;2022-07-29T12:55:37;3.47;;;3.35;;
10947;SDS011;5526;42.070;24.752;2022-07-29T12:58:08;4.00;;;3.78;;
10947;SDS011;5526;42.070;24.752;2022-07-29T13:00:35;4.07;;;3.67;;
10947;SDS011;5526;42.070;24.752;2022-07-29T13:03:03;3.70;;;3.45;;
10947;SDS011;5526;42.070;24.752;2022-07-29T13:05:40;5.88;;;3.60;;
10947;SDS011;5526;42.070;24.752;2022-07-29T13:08:12;3.92;;;3.58;;
10947;SDS011;5526;42.070;24.752;2022-07-29T13:10:41;4.07;;;3.78;;
10947;SDS011;5526;42.070;24.752;2022-07-29T13:13:11;3.90;;;3.70;;
10947;SDS011;5526;42.070;24.752;2022-07-29T13:15:40;4.35;;;4.15;;
10947;SDS011;5526;42.070;24.752;2022-07-29T13:20:53;4.25;;;3.70;;
10947;SDS011;5526;42.070;24.752;2022-07-29T13:23:20;4.10;;;3.80;;
10947;SDS011;5526;42.070;24.752;2022-07-29T13:25:49;3.63;;;3.45;;
10947;SDS011;5526;42.070;24.752;2022-07-29T13:28:16;4.47;;;4.13;;
10947;SDS011;5526;42.070;24.752;2022-07-29T13:30:44;3.80;;;3.60;;
10947;SDS011;5526;42.070;24.752;2022-07-29T13:33:12;3.75;;;3.58;;
10947;SDS011;5526;42.070;24.752;2022-07-29T13:35:40;3.90;;;3.60;;
10947;SDS011;5526;42.070;24.752;2022-07-29T13:38:07;3.80;;;3.50;;
10947;SDS011;5526;42.070;24.752;2022-07-29T13:40:34;3.45;;;3.35;;
10947;SDS011;5526;42.070;24.752;2022-07-29T13:43:03;3.72;;;3.53;;
10947;SDS011;5526;42.070;24.752;2022-07-29T13:45:30;4.05;;;3.75;;
10947;SDS011;5526;42.070;24.752;2022-07-29T13:47:57;4.20;;;3.90;;
10947;SDS011;5526;42.070;24.752;2022-07-29T13:50:25;4.40;;;4.00;;
10947;SDS011;5526;42.070;24.752;2022-07-29T13:52:52;4.30;;;4.10;;
10947;SDS011;5526;42.070;24.752;2022-07-29T13:55:19;5.20;;;4.20;;
10947;SDS011;5526;42.070;24.752;2022-07-29T13:57:47;4.78;;;4.10;;
10947;SDS011;5526;42.070;24.752;2022-07-29T14:00:16;4.72;;;4.32;;
10947;SDS011;5526;42.070;24.752;2022-07-29T14:02:44;4.35;;;4.10;;
10947;SDS011;5526;42.070;24.752;2022-07-29T14:05:11;4.18;;;3.97;;
10947;SDS011;5526;42.070;24.752;2022-07-29T14:07:39;5.03;;;4.00;;
10947;SDS011;5526;42.070;24.752;2022-07-29T14:10:06;4.47;;;3.95;;
10947;SDS011;5526;42.070;24.752;2022-07-29T14:12:34;4.10;;;3.90;;
10947;SDS011;5526;42.070;24.752;2022-07-29T14:15:02;4.10;;;3.90;;
10947;SDS011;5526;42.070;24.752;2022-07-29T14:17:31;4.40;;;4.10;;
10947;SDS011;5526;42.070;24.752;2022-07-29T14:19:58;4.22;;;3.92;;
10947;SDS011;5526;42.070;24.752;2022-07-29T14:22:26;4.43;;;4.18;;
10947;SDS011;5526;42.070;24.752;2022-07-29T14:24:53;4.35;;;4.05;;
10947;SDS011;5526;42.070;24.752;2022-07-29T14:27:20;4.30;;;4.00;;
10947;SDS011;5526;42.070;24.752;2022-07-29T14:29:47;4.78;;;4.38;;
10947;SDS011;5526;42.070;24.752;2022-07-29T14:32:15;4.20;;;4.00;;
10947;SDS011;5526;42.070;24.752;2022-07-29T14:34:43;4.22;;;3.92;;
10947;SDS011;5526;42.070;24.752;2022-07-29T14:37:10;4.25;;;4.05;;
10947;SDS011;5526;42.070;24.752;2022-07-29T14:39:38;3.80;;;3.60;;
10947;SDS011;5526;42.070;24.752;2022-07-29T14:42:05;3.50;;;3.40;;
10947;SDS011;5526;42.070;24.752;2022-07-29T14:44:33;3.53;;;3.40;;
10947;SDS011;5526;42.070;24.752;2022-07-29T14:47:00;3.65;;;3.45;;
10947;SDS011;5526;42.070;24.752;2022-07-29T14:49:27;4.22;;;4.00;;
10947;SDS011;5526;42.070;24.752;2022-07-29T14:51:56;3.25;;;3.13;;
10947;SDS011;5526;42.070;24.752;2022-07-29T14:54:23;4.03;;;3.83;;
10947;SDS011;5526;42.070;24.752;2022-07-29T14:56:50;3.30;;;3.20;;
10947;SDS011;5526;42.070;24.752;2022-07-29T14:59:21;3.50;;;3.30;;
10947;SDS011;5526;42.070;24.752;2022-07-29T15:01:49;4.07;;;3.60;;
10947;SDS011;5526;42.070;24.752;2022-07-29T15:04:16;4.18;;;3.97;;
10947;SDS011;5526;42.070;24.752;2022-07-29T15:06:44;3.70;;;3.40;;
10947;SDS011;5526;42.070;24.752;2022-07-29T15:09:12;3.47;;;3.17;;
10947;SDS011;5526;42.070;24.752;2022-07-29T15:11:40;3.72;;;3.40;;
10947;SDS011;5526;42.070;24.752;2022-07-29T15:14:07;3.88;;;3.45;;
10947;SDS011;5526;42.070;24.752;2022-07-29T15:16:35;3.55;;;3.38;;